createdAt,value
2023-11-20T00:02:19.560Z,19.90
2023-11-20T00:05:22.958Z,21.38
2023-11-20T00:08:25.627Z,19.40
2023-11-20T00:11:28.603Z,19.20
2023-11-20T00:14:30.669Z,20.80
2023-11-20T00:17:33.248Z,20.13
2023-11-20T00:20:37.456Z,19.60
2023-11-20T00:23:39.607Z,19.35
2023-11-20T00:26:42.117Z,20.30
2023-11-20T00:29:45.181Z,19.27
2023-11-20T00:32:47.550Z,20.02
2023-11-20T00:35:50.003Z,19.85
2023-11-20T00:38:52.350Z,19.88
2023-11-20T00:41:54.567Z,20.38
2023-11-20T00:44:56.689Z,19.25
2023-11-20T00:47:58.781Z,19.13
2023-11-20T00:51:01.035Z,17.33
2023-11-20T00:54:03.188Z,17.75
2023-11-20T00:57:05.545Z,17.40
2023-11-20T01:00:08.637Z,18.67
2023-11-20T01:03:10.871Z,17.80
2023-11-20T01:06:14.096Z,18.02
2023-11-20T01:09:16.282Z,18.63
2023-11-20T01:12:18.445Z,18.75
2023-11-20T01:15:20.997Z,17.40
2023-11-20T01:18:24.317Z,18.17
2023-11-20T01:21:26.570Z,18.67
2023-11-20T01:24:29.152Z,17.52
2023-11-20T01:27:31.280Z,17.25
2023-11-20T01:30:33.543Z,18.87
2023-11-20T01:33:35.751Z,17.95
2023-11-20T01:36:38.731Z,17.55
2023-11-20T01:39:40.838Z,19.77
2023-11-20T01:42:43.432Z,18.98
2023-11-20T01:45:46.387Z,17.05
2023-11-20T01:48:49.410Z,17.27
2023-11-20T01:51:52.089Z,17.77
2023-11-20T01:54:55.110Z,17.52
2023-11-20T01:57:57.877Z,18.08
2023-11-20T02:01:00.059Z,17.87
2023-11-20T02:04:03.613Z,17.17
2023-11-20T02:07:08.871Z,18.15
2023-11-20T02:10:11.790Z,19.35
2023-11-20T02:13:16.024Z,18.67
2023-11-20T02:16:18.176Z,19.55
2023-11-20T02:19:20.888Z,17.35
2023-11-20T02:22:23.292Z,18.77
2023-11-20T02:25:25.427Z,17.85
2023-11-20T02:28:28.841Z,18.33
2023-11-20T02:31:31.451Z,17.93
2023-11-20T02:34:33.767Z,18.95
2023-11-20T02:37:35.892Z,18.58
2023-11-20T02:40:38.153Z,16.60
2023-11-20T02:43:40.218Z,15.77
2023-11-20T02:46:45.321Z,17.10
2023-11-20T02:49:47.580Z,15.80
2023-11-20T02:52:49.698Z,16.30
2023-11-20T02:55:51.800Z,16.52
2023-11-20T02:58:53.880Z,19.88
2023-11-20T03:01:56.847Z,18.40
2023-11-20T03:04:58.999Z,19.38
2023-11-20T03:08:01.396Z,17.85
2023-11-20T03:11:03.525Z,15.98
2023-11-20T03:14:06.195Z,16.40
2023-11-20T03:17:08.917Z,16.65
2023-11-20T03:20:14.107Z,17.35
2023-11-20T03:23:16.578Z,16.03
2023-11-20T03:26:24.848Z,18.30
2023-11-20T03:29:26.901Z,16.90
2023-11-20T03:32:29.384Z,16.97
2023-11-20T03:35:31.587Z,16.27
2023-11-20T03:38:34.096Z,16.08
2023-11-20T03:41:36.527Z,16.80
2023-11-20T03:44:39.042Z,15.98
2023-11-20T03:47:41.687Z,16.27
2023-11-20T03:50:43.826Z,16.85
2023-11-20T03:53:45.964Z,16.80
2023-11-20T03:56:48.421Z,17.05
2023-11-20T03:59:51.153Z,15.98
2023-11-20T04:02:53.723Z,15.53
2023-11-20T04:05:55.844Z,16.35
2023-11-20T04:08:58.639Z,16.88
2023-11-20T04:12:00.922Z,18.05
2023-11-20T04:15:03.525Z,19.88
2023-11-20T04:18:05.774Z,18.80
2023-11-20T04:21:08.469Z,18.67
2023-11-20T04:24:11.084Z,18.17
2023-11-20T04:27:13.272Z,17.10
2023-11-20T04:30:15.729Z,16.52
2023-11-20T04:33:18.534Z,17.80
2023-11-20T04:36:20.642Z,17.40
2023-11-20T04:39:22.831Z,18.05
2023-11-20T04:42:24.933Z,18.33
2023-11-20T04:45:26.963Z,17.55
2023-11-20T04:48:29.546Z,18.08
2023-11-20T04:51:32.020Z,17.73
2023-11-20T04:54:36.269Z,17.90
2023-11-20T04:57:38.998Z,17.02
2023-11-20T05:00:41.505Z,17.67
2023-11-20T05:03:46.616Z,18.17
2023-11-20T05:06:50.331Z,16.85
2023-11-20T05:09:52.563Z,16.48
2023-11-20T05:12:55.904Z,16.70
2023-11-20T05:15:58.258Z,16.67
2023-11-20T05:19:00.814Z,17.55
2023-11-20T05:22:03.144Z,17.67
2023-11-20T05:25:06.350Z,16.97
2023-11-20T05:28:08.851Z,17.92
2023-11-20T05:31:11.062Z,22.23
2023-11-20T05:34:13.884Z,23.30
2023-11-20T05:37:15.961Z,24.67
2023-11-20T05:40:19.289Z,26.40
2023-11-20T05:43:21.948Z,21.65
2023-11-20T05:46:24.140Z,19.52
2023-11-20T05:49:26.660Z,20.48
2023-11-20T05:52:30.910Z,20.83
2023-11-20T05:55:34.045Z,20.63
2023-11-20T05:58:36.507Z,20.73
2023-11-20T06:01:40.467Z,19.10
2023-11-20T06:04:43.567Z,19.57
2023-11-20T06:07:45.783Z,19.50
2023-11-20T06:10:48.238Z,20.25
2023-11-20T06:13:50.455Z,18.83
2023-11-20T06:16:52.722Z,17.92
2023-11-20T06:19:54.846Z,18.23
2023-11-20T06:22:57.415Z,23.17
2023-11-20T06:26:00.237Z,22.13
2023-11-20T06:29:02.317Z,30.90
2023-11-20T06:32:08.046Z,28.33
2023-11-20T06:35:11.900Z,28.57
2023-11-20T06:38:14.712Z,29.67
2023-11-20T06:41:18.398Z,35.30
2023-11-20T06:44:22.266Z,38.03
2023-11-20T06:47:25.703Z,31.83
2023-11-20T06:50:28.405Z,31.63
2023-11-20T06:53:30.607Z,28.83
2023-11-20T06:56:34.778Z,26.90
2023-11-20T06:59:36.989Z,25.33
2023-11-20T07:02:39.581Z,26.23
2023-11-20T07:05:42.128Z,26.33
2023-11-20T07:08:44.291Z,26.33
2023-11-20T07:11:46.855Z,26.70
2023-11-20T07:14:48.967Z,31.70
2023-11-20T07:17:51.598Z,31.40
2023-11-20T07:20:55.029Z,31.33
2023-11-20T07:24:02.638Z,31.08
2023-11-20T07:27:06.053Z,29.43
2023-11-20T07:30:10.450Z,29.95
2023-11-20T07:33:12.676Z,29.42
2023-11-20T07:36:17.936Z,28.30
2023-11-20T07:39:20.372Z,27.95
2023-11-20T07:42:23.374Z,26.83
2023-11-20T07:45:26.175Z,27.33
2023-11-20T07:48:30.213Z,29.08
2023-11-20T07:51:32.870Z,30.00
2023-11-20T07:54:35.344Z,25.38
2023-11-20T07:57:37.614Z,24.67
2023-11-20T08:00:39.805Z,23.73
2023-11-20T08:03:43.200Z,24.35
2023-11-20T08:06:47.246Z,23.13
2023-11-20T08:09:49.849Z,22.63
2023-11-20T08:12:52.313Z,28.67
2023-11-20T08:15:54.656Z,27.70
2023-11-20T08:19:02.002Z,29.17
2023-11-20T08:22:05.907Z,27.10
2023-11-20T08:25:08.308Z,30.02
2023-11-20T08:28:10.483Z,25.67
2023-11-20T08:31:18.026Z,24.58
2023-11-20T08:34:24.022Z,24.90
2023-11-20T08:37:28.767Z,65.57
2023-11-20T08:40:32.643Z,24.90
2023-11-20T08:43:36.576Z,20.23
2023-11-20T08:46:43.140Z,20.45
2023-11-20T08:49:46.037Z,18.83
2023-11-20T08:52:48.468Z,20.15
2023-11-20T08:55:50.641Z,20.38
2023-11-20T08:58:52.705Z,20.60
2023-11-20T09:01:55.656Z,20.48
2023-11-20T09:04:58.192Z,20.75
2023-11-20T09:08:00.578Z,22.57
2023-11-20T09:11:03.581Z,21.80
2023-11-20T09:14:06.194Z,21.20
2023-11-20T09:17:08.337Z,21.08
2023-11-20T09:20:16.773Z,21.60
2023-11-20T09:23:18.994Z,27.10
2023-11-20T09:26:21.240Z,31.05
2023-11-20T09:29:23.690Z,28.20
2023-11-20T09:32:27.742Z,23.50
2023-11-20T09:35:30.384Z,22.15
2023-11-20T09:38:33.025Z,20.90
2023-11-20T09:41:36.180Z,20.33
2023-11-20T09:44:40.164Z,20.20
2023-11-20T09:47:42.807Z,19.38
2023-11-20T09:50:45.686Z,18.40
2023-11-20T09:53:49.180Z,19.45
2023-11-20T09:56:51.603Z,19.00
2023-11-20T09:59:54.880Z,17.70
2023-11-20T10:02:57.214Z,16.67
2023-11-20T10:06:02.559Z,15.82
2023-11-20T10:09:05.131Z,17.73
2023-11-20T10:12:07.908Z,16.05
2023-11-20T10:15:15.894Z,15.77
2023-11-20T10:18:18.456Z,14.52
2023-11-20T10:21:21.027Z,15.02
2023-11-20T10:24:26.148Z,13.23
2023-11-20T10:27:30.152Z,13.75
2023-11-20T10:30:32.561Z,13.23
2023-11-20T10:33:36.183Z,13.93
2023-11-20T10:36:38.872Z,15.13
2023-11-20T10:39:41.011Z,11.73
2023-11-20T10:42:43.519Z,10.53
2023-11-20T10:45:45.660Z,10.57
2023-11-20T10:48:49.087Z,10.38
2023-11-20T10:51:55.881Z,9.57
2023-11-20T10:55:00.481Z,7.95
2023-11-20T10:58:02.607Z,7.53
2023-11-20T11:01:04.935Z,6.50
2023-11-20T11:04:07.364Z,5.80
2023-11-20T11:07:12.639Z,4.57
2023-11-20T11:10:16.028Z,4.15
2023-11-20T11:13:20.188Z,3.92
2023-11-20T11:16:23.277Z,4.00
2023-11-20T11:19:25.897Z,3.67
2023-11-20T11:22:32.618Z,3.55
2023-11-20T11:25:35.669Z,3.55
2023-11-20T11:28:39.328Z,2.28
2023-11-20T11:31:47.169Z,1.87
2023-11-20T11:35:03.043Z,1.42
2023-11-20T11:38:12.156Z,1.23
2023-11-20T11:41:31.716Z,1.63
2023-11-20T11:44:35.371Z,1.47
2023-11-20T11:47:37.794Z,1.60
2023-11-20T11:50:40.986Z,1.65
2023-11-20T11:53:43.257Z,2.35
2023-11-20T11:56:51.753Z,2.28
2023-11-20T11:59:54.574Z,4.23
2023-11-20T12:02:58.388Z,3.80
2023-11-20T12:06:00.508Z,3.67
2023-11-20T12:09:05.075Z,3.28
2023-11-20T12:12:07.392Z,3.10
2023-11-20T12:15:29.667Z,5.30
2023-11-20T12:18:36.048Z,6.97
2023-11-20T12:21:41.794Z,8.02
2023-11-20T12:24:45.469Z,8.37
2023-11-20T12:27:47.686Z,8.80
2023-11-20T12:30:50.419Z,8.25
2023-11-20T12:33:53.040Z,8.23
2023-11-20T12:36:55.246Z,9.50
2023-11-20T12:40:10.687Z,8.45
2023-11-20T12:43:19.240Z,8.82
2023-11-20T12:46:22.401Z,8.38
2023-11-20T12:49:24.794Z,8.60
2023-11-20T12:52:27.380Z,8.85
2023-11-20T12:55:30.091Z,9.13
2023-11-20T12:58:32.377Z,9.02
2023-11-20T13:01:34.963Z,8.90
2023-11-20T13:04:37.509Z,8.38
2023-11-20T13:07:49.438Z,9.52
2023-11-20T13:10:53.448Z,9.55
2023-11-20T13:14:00.671Z,11.73
2023-11-20T13:17:02.974Z,11.63
2023-11-20T13:20:34.638Z,10.40
2023-11-20T13:23:37.576Z,10.45
2023-11-20T13:26:45.644Z,9.98
2023-11-20T13:30:07.201Z,9.33
2023-11-20T13:33:10.407Z,9.32
2023-11-20T13:36:12.711Z,10.10
2023-11-20T13:39:20.823Z,8.70
2023-11-20T13:42:23.672Z,7.30
2023-11-20T13:45:26.114Z,3.33
2023-11-20T13:48:28.634Z,2.50
2023-11-20T13:51:31.355Z,2.22
2023-11-20T13:54:34.733Z,2.47
2023-11-20T13:57:37.285Z,2.72
2023-11-20T14:00:39.353Z,4.68
2023-11-20T14:03:42.531Z,6.28
2023-11-20T14:06:45.370Z,6.00
2023-11-20T14:09:47.375Z,7.65
2023-11-20T14:12:50.823Z,7.72
2023-11-20T14:15:53.811Z,8.73
2023-11-20T14:18:56.067Z,9.07
2023-11-20T14:21:59.142Z,9.93
2023-11-20T14:25:02.505Z,11.18
2023-11-20T14:28:04.931Z,10.80
2023-11-20T14:31:13.145Z,12.07
2023-11-20T14:34:17.881Z,10.50
2023-11-20T14:37:20.541Z,9.15
2023-11-20T14:40:37.678Z,8.35
2023-11-20T14:43:46.239Z,8.20
2023-11-20T14:46:54.258Z,18.53
2023-11-20T14:49:56.590Z,54.95
2023-11-20T14:52:59.010Z,18.80
2023-11-20T14:56:06.337Z,27.23
2023-11-20T14:59:09.233Z,8.82
2023-11-20T15:02:11.310Z,9.35
2023-11-20T15:05:13.633Z,10.85
2023-11-20T15:08:16.663Z,11.37
2023-11-20T15:11:43.830Z,12.97
2023-11-20T15:14:45.970Z,11.25
2023-11-20T15:17:48.972Z,10.23
2023-11-20T15:20:52.229Z,11.13
2023-11-20T15:23:54.427Z,10.57
2023-11-20T15:26:56.565Z,11.55
2023-11-20T15:29:59.045Z,11.77
2023-11-20T15:33:02.186Z,11.23
2023-11-20T15:36:04.653Z,11.75
2023-11-20T15:39:07.211Z,12.07
2023-11-20T15:42:10.280Z,11.25
2023-11-20T15:45:13.046Z,14.50
2023-11-20T15:48:18.487Z,20.45
2023-11-20T15:51:20.704Z,21.50
2023-11-20T15:54:22.748Z,15.57
2023-11-20T15:57:25.203Z,15.70
2023-11-20T16:00:32.980Z,22.35
2023-11-20T16:03:38.856Z,19.45
2023-11-20T16:06:41.569Z,20.42
2023-11-20T16:09:43.680Z,19.85
2023-11-20T16:12:45.914Z,20.02
2023-11-20T16:15:48.390Z,19.58
2023-11-20T16:18:51.249Z,17.00
2023-11-20T16:21:55.763Z,15.70
2023-11-20T16:24:58.058Z,18.13
2023-11-20T16:28:00.137Z,17.92
2023-11-20T16:31:02.334Z,19.23
2023-11-20T16:34:04.712Z,20.70
2023-11-20T16:37:06.892Z,18.58
2023-11-20T16:40:10.337Z,15.52
2023-11-20T16:43:12.947Z,14.23
2023-11-20T16:46:15.268Z,13.65
2023-11-20T16:49:17.442Z,13.80
2023-11-20T16:52:19.695Z,13.63
2023-11-20T16:55:23.876Z,14.70
2023-11-20T16:58:26.672Z,14.75
2023-11-20T17:01:28.944Z,15.05
2023-11-20T17:04:31.707Z,13.23
2023-11-20T17:07:34.624Z,12.40
2023-11-20T17:10:36.878Z,12.27
2023-11-20T17:13:39.165Z,16.85
2023-11-20T17:16:42.772Z,18.20
2023-11-20T17:20:01.021Z,19.88
2023-11-20T17:23:13.411Z,24.90
2023-11-20T17:26:16.180Z,58.13
2023-11-20T17:29:22.153Z,23.30
2023-11-20T17:32:26.429Z,16.27
2023-11-20T17:35:30.300Z,16.13
2023-11-20T17:38:32.541Z,13.68
2023-11-20T17:41:34.626Z,13.23
2023-11-20T17:44:41.547Z,14.52
2023-11-20T17:47:43.744Z,15.30
2023-11-20T17:50:46.008Z,15.27
2023-11-20T17:53:49.171Z,17.00
2023-11-20T17:56:52.056Z,18.95
2023-11-20T17:59:54.312Z,15.85
2023-11-20T18:02:57.037Z,15.52
2023-11-20T18:05:59.841Z,14.38
2023-11-20T18:09:02.192Z,15.02
2023-11-20T18:12:04.463Z,14.10
2023-11-20T18:15:07.812Z,23.27
2023-11-20T18:18:11.663Z,25.83
2023-11-20T18:21:13.900Z,24.17
2023-11-20T18:24:23.360Z,18.52
2023-11-20T18:27:25.797Z,18.63
2023-11-20T18:30:27.783Z,30.52
2023-11-20T18:33:30.468Z,27.23
2023-11-20T18:36:32.611Z,43.47
2023-11-20T18:39:34.686Z,40.30
2023-11-20T18:42:36.879Z,36.93
2023-11-20T18:45:39.987Z,35.88
2023-11-20T18:48:42.326Z,37.95
2023-11-20T18:51:44.540Z,34.30
2023-11-20T18:54:47.977Z,33.22
2023-11-20T18:57:54.964Z,32.45
2023-11-20T19:00:57.404Z,33.97
2023-11-20T19:04:02.014Z,34.00
2023-11-20T19:07:04.494Z,33.63
2023-11-20T19:10:07.669Z,31.88
2023-11-20T19:13:10.427Z,31.93
2023-11-20T19:16:12.740Z,32.20
2023-11-20T19:19:15.328Z,30.42
2023-11-20T19:22:20.027Z,32.15
2023-11-20T19:25:22.177Z,32.15
2023-11-20T19:28:24.588Z,35.88
2023-11-20T19:31:27.038Z,37.25
2023-11-20T19:34:31.008Z,35.80
2023-11-20T19:37:33.143Z,39.70
2023-11-20T19:40:35.458Z,36.20
2023-11-20T19:43:37.828Z,35.60
2023-11-20T19:46:40.481Z,34.55
2023-11-20T19:49:42.785Z,33.22
2023-11-20T19:52:46.280Z,32.55
2023-11-20T19:55:49.623Z,31.88
2023-11-20T19:58:52.514Z,28.65
2023-11-20T20:01:58.591Z,27.63
2023-11-20T20:05:00.726Z,26.80
2023-11-20T20:08:04.348Z,26.98
2023-11-20T20:11:06.881Z,24.98
2023-11-20T20:14:09.161Z,27.03
2023-11-20T20:17:14.007Z,25.27
2023-11-20T20:20:18.582Z,29.40
2023-11-20T20:23:21.563Z,34.40
2023-11-20T20:26:30.721Z,36.83
2023-11-20T20:29:33.443Z,35.08
2023-11-20T20:32:35.602Z,33.65
2023-11-20T20:35:38.518Z,34.83
2023-11-20T20:38:40.691Z,36.25
2023-11-20T20:41:42.762Z,39.65
2023-11-20T20:44:49.152Z,36.50
2023-11-20T20:47:51.311Z,26.00
2023-11-20T20:50:53.543Z,26.02
2023-11-20T20:53:55.772Z,25.90
2023-11-20T20:56:59.473Z,32.95
2023-11-20T21:00:04.709Z,41.50
2023-11-20T21:03:08.818Z,42.85
2023-11-20T21:06:10.922Z,33.13
2023-11-20T21:09:13.737Z,33.03
2023-11-20T21:12:15.969Z,33.40
2023-11-20T21:15:18.130Z,38.00
2023-11-20T21:18:20.334Z,39.72
2023-11-20T21:21:22.497Z,35.47
2023-11-20T21:24:24.612Z,32.88
2023-11-20T21:27:26.848Z,29.13
2023-11-20T21:30:29.289Z,27.70
2023-11-20T21:33:31.684Z,27.15
2023-11-20T21:36:34.532Z,28.13
2023-11-20T21:39:36.643Z,31.63
2023-11-20T21:42:39.197Z,30.50
2023-11-20T21:45:41.812Z,28.97
2023-11-20T21:48:44.196Z,31.48
2023-11-20T21:51:46.446Z,32.05
2023-11-20T21:54:48.914Z,30.13
2023-11-20T21:57:52.006Z,30.00
2023-11-20T22:00:54.090Z,29.40
2023-11-20T22:03:56.537Z,27.65
2023-11-20T22:06:58.709Z,32.93
2023-11-20T22:10:01.349Z,34.15
2023-11-20T22:13:04.038Z,36.20
2023-11-20T22:16:06.872Z,44.30
2023-11-20T22:19:10.922Z,39.70
2023-11-20T22:22:20.751Z,38.28
2023-11-20T22:25:23.084Z,36.50
2023-11-20T22:28:25.632Z,35.97
2023-11-20T22:31:28.233Z,35.47
2023-11-20T22:34:30.519Z,33.42
2023-11-20T22:37:34.130Z,32.60
2023-11-20T22:40:36.431Z,31.80
2023-11-20T22:43:39.432Z,31.00
2023-11-20T22:46:41.817Z,29.87
2023-11-20T22:49:45.094Z,29.48
2023-11-20T22:52:47.203Z,27.85
2023-11-20T22:55:51.160Z,28.23
2023-11-20T22:58:53.385Z,25.05
2023-11-20T23:01:56.090Z,24.95
2023-11-20T23:04:58.556Z,23.23
2023-11-20T23:08:00.768Z,20.83
2023-11-20T23:11:02.756Z,20.52
2023-11-20T23:14:05.260Z,21.27
2023-11-20T23:17:07.800Z,21.87
2023-11-20T23:20:17.180Z,20.17
2023-11-20T23:23:22.330Z,20.65
2023-11-20T23:26:26.374Z,23.83
2023-11-20T23:29:28.630Z,26.73
2023-11-20T23:32:30.748Z,26.88
2023-11-20T23:35:33.552Z,25.83
2023-11-20T23:38:35.715Z,26.93
2023-11-20T23:41:37.798Z,26.75
2023-11-20T23:44:41.230Z,25.45
2023-11-20T23:47:43.390Z,25.77
2023-11-20T23:50:46.722Z,24.70
2023-11-20T23:53:48.940Z,21.88
2023-11-20T23:56:51.686Z,22.67
2023-11-20T23:59:53.780Z,20.65
